sensor_id;sensor_type;location;lat;lon;timestamp;temperature;humidity
22130;DHT22;11231;50.746;4.272;2023-10-31T00:01:52;12.80;99.90
22130;DHT22;11231;50.746;4.272;2023-10-31T00:04:19;12.80;99.90
22130;DHT22;11231;50.746;4.272;2023-10-31T00:06:45;12.70;99.90
22130;DHT22;11231;50.746;4.272;2023-10-31T00:09:13;12.60;99.90
22130;DHT22;11231;50.746;4.272;2023-10-31T00:11:41;12.60;99.90
22130;DHT22;11231;50.746;4.272;2023-10-31T00:14:08;12.60;99.90
22130;DHT22;11231;50.746;4.272;2023-10-31T00:16:35;12.50;99.90
22130;DHT22;11231;50.746;4.272;2023-10-31T00:19:01;12.50;99.90
22130;DHT22;11231;50.746;4.272;2023-10-31T00:21:30;12.60;99.90
22130;DHT22;11231;50.746;4.272;2023-10-31T00:23:57;12.70;99.90
22130;DHT22;11231;50.746;4.272;2023-10-31T00:26:23;12.60;99.90
22130;DHT22;11231;50.746;4.272;2023-10-31T00:28:52;12.60;99.90
22130;DHT22;11231;50.746;4.272;2023-10-31T00:31:18;12.60;99.90
22130;DHT22;11231;50.746;4.272;2023-10-31T00:33:44;12.60;99.90
22130;DHT22;11231;50.746;4.272;2023-10-31T00:36:10;12.70;99.90
22130;DHT22;11231;50.746;4.272;2023-10-31T00:38:36;12.60;99.90
22130;DHT22;11231;50.746;4.272;2023-10-31T00:41:02;12.70;99.90
22130;DHT22;11231;50.746;4.272;2023-10-31T00:43:28;12.70;99.90
22130;DHT22;11231;50.746;4.272;2023-10-31T00:45:53;12.80;99.90
22130;DHT22;11231;50.746;4.272;2023-10-31T00:48:19;12.90;99.90
22130;DHT22;11231;50.746;4.272;2023-10-31T00:50:45;12.80;99.90
22130;DHT22;11231;50.746;4.272;2023-10-31T00:53:11;12.90;99.90
22130;DHT22;11231;50.746;4.272;2023-10-31T00:55:39;12.90;99.90
22130;DHT22;11231;50.746;4.272;2023-10-31T00:58:04;12.90;99.90
22130;DHT22;11231;50.746;4.272;2023-10-31T01:00:30;13.00;99.90
22130;DHT22;11231;50.746;4.272;2023-10-31T01:02:57;13.10;99.90
22130;DHT22;11231;50.746;4.272;2023-10-31T01:05:23;13.00;99.90
22130;DHT22;11231;50.746;4.272;2023-10-31T01:07:48;12.90;99.90
22130;DHT22;11231;50.746;4.272;2023-10-31T01:10:14;13.00;99.90
22130;DHT22;11231;50.746;4.272;2023-10-31T01:12:40;12.90;99.90
22130;DHT22;11231;50.746;4.272;2023-10-31T01:15:06;13.00;99.90
22130;DHT22;11231;50.746;4.272;2023-10-31T01:17:32;13.00;99.90
22130;DHT22;11231;50.746;4.272;2023-10-31T01:19:58;13.00;99.90
22130;DHT22;11231;50.746;4.272;2023-10-31T01:22:23;13.10;99.90
22130;DHT22;11231;50.746;4.272;2023-10-31T01:24:49;13.10;99.90
22130;DHT22;11231;50.746;4.272;2023-10-31T01:27:15;12.90;99.90
22130;DHT22;11231;50.746;4.272;2023-10-31T01:29:41;12.90;99.90
22130;DHT22;11231;50.746;4.272;2023-10-31T01:32:06;12.90;99.90
22130;DHT22;11231;50.746;4.272;2023-10-31T01:34:33;12.90;99.90
22130;DHT22;11231;50.746;4.272;2023-10-31T01:36:58;12.90;99.90
22130;DHT22;11231;50.746;4.272;2023-10-31T01:39:26;12.90;99.90
22130;DHT22;11231;50.746;4.272;2023-10-31T01:41:52;13.00;99.90
22130;DHT22;11231;50.746;4.272;2023-10-31T01:44:20;12.90;99.90
22130;DHT22;11231;50.746;4.272;2023-10-31T01:46:46;12.80;99.90
22130;DHT22;11231;50.746;4.272;2023-10-31T01:49:13;12.80;99.90
22130;DHT22;11231;50.746;4.272;2023-10-31T01:51:40;12.80;99.90
22130;DHT22;11231;50.746;4.272;2023-10-31T01:54:07;12.80;99.90
22130;DHT22;11231;50.746;4.272;2023-10-31T01:56:37;12.80;99.90
22130;DHT22;11231;50.746;4.272;2023-10-31T01:59:05;12.80;99.90
22130;DHT22;11231;50.746;4.272;2023-10-31T02:01:38;12.70;99.90
22130;DHT22;11231;50.746;4.272;2023-10-31T02:04:05;12.50;99.90
22130;DHT22;11231;50.746;4.272;2023-10-31T02:06:31;12.60;99.90
22130;DHT22;11231;50.746;4.272;2023-10-31T02:08:57;12.60;99.90
22130;DHT22;11231;50.746;4.272;2023-10-31T02:11:22;12.60;99.90
22130;DHT22;11231;50.746;4.272;2023-10-31T02:13:48;12.50;99.90
22130;DHT22;11231;50.746;4.272;2023-10-31T02:16:14;12.60;99.90
22130;DHT22;11231;50.746;4.272;2023-10-31T02:18:40;12.70;99.90
22130;DHT22;11231;50.746;4.272;2023-10-31T02:21:06;12.50;99.90
22130;DHT22;11231;50.746;4.272;2023-10-31T02:23:32;12.50;99.90
22130;DHT22;11231;50.746;4.272;2023-10-31T02:25:58;12.50;99.90
22130;DHT22;11231;50.746;4.272;2023-10-31T02:28:23;12.50;99.90
22130;DHT22;11231;50.746;4.272;2023-10-31T02:30:53;12.50;99.90
22130;DHT22;11231;50.746;4.272;2023-10-31T02:33:20;12.40;99.90
22130;DHT22;11231;50.746;4.272;2023-10-31T02:35:46;12.40;99.90
22130;DHT22;11231;50.746;4.272;2023-10-31T02:38:12;12.40;99.90
22130;DHT22;11231;50.746;4.272;2023-10-31T02:40:38;12.40;99.90
22130;DHT22;11231;50.746;4.272;2023-10-31T02:43:04;12.30;99.90
22130;DHT22;11231;50.746;4.272;2023-10-31T02:45:29;12.30;99.90
22130;DHT22;11231;50.746;4.272;2023-10-31T02:47:55;12.40;99.90
22130;DHT22;11231;50.746;4.272;2023-10-31T02:50:21;12.40;99.90
22130;DHT22;11231;50.746;4.272;2023-10-31T02:52:47;12.50;99.90
22130;DHT22;11231;50.746;4.272;2023-10-31T02:55:12;12.50;99.90
22130;DHT22;11231;50.746;4.272;2023-10-31T02:57:38;12.50;99.90
22130;DHT22;11231;50.746;4.272;2023-10-31T03:00:06;12.50;99.90
22130;DHT22;11231;50.746;4.272;2023-10-31T03:02:32;12.50;99.90
22130;DHT22;11231;50.746;4.272;2023-10-31T03:04:58;12.50;99.90
22130;DHT22;11231;50.746;4.272;2023-10-31T03:07:23;12.50;99.90
22130;DHT22;11231;50.746;4.272;2023-10-31T03:09:49;12.50;99.90
22130;DHT22;11231;50.746;4.272;2023-10-31T03:12:15;12.50;99.90
22130;DHT22;11231;50.746;4.272;2023-10-31T03:14:41;12.50;99.90
22130;DHT22;11231;50.746;4.272;2023-10-31T03:17:07;12.50;99.90
22130;DHT22;11231;50.746;4.272;2023-10-31T03:19:32;12.40;99.90
22130;DHT22;11231;50.746;4.272;2023-10-31T03:21:58;12.40;99.90
22130;DHT22;11231;50.746;4.272;2023-10-31T03:24:24;12.30;99.90
22130;DHT22;11231;50.746;4.272;2023-10-31T03:26:50;12.20;99.90
22130;DHT22;11231;50.746;4.272;2023-10-31T03:29:15;12.10;99.90
22130;DHT22;11231;50.746;4.272;2023-10-31T03:31:41;12.10;99.90
22130;DHT22;11231;50.746;4.272;2023-10-31T03:34:07;12.10;99.90
22130;DHT22;11231;50.746;4.272;2023-10-31T03:36:32;12.20;99.90
22130;DHT22;11231;50.746;4.272;2023-10-31T03:38:59;12.20;99.90
22130;DHT22;11231;50.746;4.272;2023-10-31T03:41:25;12.30;99.90
22130;DHT22;11231;50.746;4.272;2023-10-31T03:43:51;12.30;99.90
22130;DHT22;11231;50.746;4.272;2023-10-31T03:46:17;12.40;99.90
22130;DHT22;11231;50.746;4.272;2023-10-31T03:48:42;12.40;99.90
22130;DHT22;11231;50.746;4.272;2023-10-31T03:51:08;12.40;99.90
22130;DHT22;11231;50.746;4.272;2023-10-31T03:53:34;12.40;99.90
22130;DHT22;11231;50.746;4.272;2023-10-31T03:56:00;12.30;99.90
22130;DHT22;11231;50.746;4.272;2023-10-31T03:58:27;12.30;99.90
22130;DHT22;11231;50.746;4.272;2023-10-31T04:00:53;12.30;99.90
22130;DHT22;11231;50.746;4.272;2023-10-31T04:03:18;12.30;99.90
22130;DHT22;11231;50.746;4.272;2023-10-31T04:05:44;12.30;99.90
22130;DHT22;11231;50.746;4.272;2023-10-31T04:08:10;12.30;99.90
22130;DHT22;11231;50.746;4.272;2023-10-31T04:10:36;12.30;99.90
22130;DHT22;11231;50.746;4.272;2023-10-31T04:13:01;12.30;99.90
22130;DHT22;11231;50.746;4.272;2023-10-31T04:15:27;12.20;99.90
22130;DHT22;11231;50.746;4.272;2023-10-31T04:17:53;12.30;99.90
22130;DHT22;11231;50.746;4.272;2023-10-31T04:20:19;12.30;99.90
22130;DHT22;11231;50.746;4.272;2023-10-31T04:22:44;12.40;99.90
22130;DHT22;11231;50.746;4.272;2023-10-31T04:25:10;12.20;99.90
22130;DHT22;11231;50.746;4.272;2023-10-31T04:27:36;12.40;99.90
22130;DHT22;11231;50.746;4.272;2023-10-31T04:30:02;12.40;99.90
22130;DHT22;11231;50.746;4.272;2023-10-31T04:32:28;12.40;99.90
22130;DHT22;11231;50.746;4.272;2023-10-31T04:34:54;12.40;99.90
22130;DHT22;11231;50.746;4.272;2023-10-31T04:37:20;12.40;99.90
22130;DHT22;11231;50.746;4.272;2023-10-31T04:39:48;12.50;99.90
22130;DHT22;11231;50.746;4.272;2023-10-31T04:42:17;12.50;99.90
22130;DHT22;11231;50.746;4.272;2023-10-31T04:44:46;12.60;99.90
22130;DHT22;11231;50.746;4.272;2023-10-31T04:47:11;12.60;99.90
22130;DHT22;11231;50.746;4.272;2023-10-31T04:49:37;12.70;99.90
22130;DHT22;11231;50.746;4.272;2023-10-31T04:52:03;12.70;99.90
22130;DHT22;11231;50.746;4.272;2023-10-31T04:54:29;12.80;99.90
22130;DHT22;11231;50.746;4.272;2023-10-31T04:56:57;12.80;99.90
22130;DHT22;11231;50.746;4.272;2023-10-31T04:59:23;12.80;99.90
22130;DHT22;11231;50.746;4.272;2023-10-31T05:01:49;12.80;99.90
22130;DHT22;11231;50.746;4.272;2023-10-31T05:04:16;12.80;99.90
22130;DHT22;11231;50.746;4.272;2023-10-31T05:06:43;12.80;99.90
22130;DHT22;11231;50.746;4.272;2023-10-31T05:09:08;12.80;99.90
22130;DHT22;11231;50.746;4.272;2023-10-31T05:11:36;12.80;99.90
22130;DHT22;11231;50.746;4.272;2023-10-31T05:14:02;12.70;99.90
22130;DHT22;11231;50.746;4.272;2023-10-31T05:16:28;12.70;99.90
22130;DHT22;11231;50.746;4.272;2023-10-31T05:18:53;12.70;99.90
22130;DHT22;11231;50.746;4.272;2023-10-31T05:21:19;12.70;99.90
22130;DHT22;11231;50.746;4.272;2023-10-31T05:23:49;12.80;99.90
22130;DHT22;11231;50.746;4.272;2023-10-31T05:26:14;12.80;99.90
22130;DHT22;11231;50.746;4.272;2023-10-31T05:28:40;12.90;99.90
22130;DHT22;11231;50.746;4.272;2023-10-31T05:31:06;12.90;99.90
22130;DHT22;11231;50.746;4.272;2023-10-31T05:33:34;12.80;99.90
22130;DHT22;11231;50.746;4.272;2023-10-31T05:36:01;12.70;99.90
22130;DHT22;11231;50.746;4.272;2023-10-31T05:38:27;12.70;99.90
22130;DHT22;11231;50.746;4.272;2023-10-31T05:40:53;12.70;99.90
22130;DHT22;11231;50.746;4.272;2023-10-31T05:43:19;12.80;99.90
22130;DHT22;11231;50.746;4.272;2023-10-31T05:45:47;12.80;99.90
22130;DHT22;11231;50.746;4.272;2023-10-31T05:48:13;12.70;99.90
22130;DHT22;11231;50.746;4.272;2023-10-31T05:50:42;12.70;99.90
22130;DHT22;11231;50.746;4.272;2023-10-31T05:53:07;12.80;99.90
22130;DHT22;11231;50.746;4.272;2023-10-31T05:55:33;12.80;99.90
22130;DHT22;11231;50.746;4.272;2023-10-31T05:58:00;12.70;99.90
22130;DHT22;11231;50.746;4.272;2023-10-31T06:00:26;12.60;99.90
22130;DHT22;11231;50.746;4.272;2023-10-31T06:02:52;12.60;99.90
22130;DHT22;11231;50.746;4.272;2023-10-31T06:05:17;12.50;99.90
22130;DHT22;11231;50.746;4.272;2023-10-31T06:07:43;12.50;99.90
22130;DHT22;11231;50.746;4.272;2023-10-31T06:10:09;12.50;99.90
22130;DHT22;11231;50.746;4.272;2023-10-31T06:12:35;12.60;99.90
22130;DHT22;11231;50.746;4.272;2023-10-31T06:15:01;12.50;99.90
22130;DHT22;11231;50.746;4.272;2023-10-31T06:17:27;12.40;99.90
22130;DHT22;11231;50.746;4.272;2023-10-31T06:19:53;12.40;99.90
22130;DHT22;11231;50.746;4.272;2023-10-31T06:22:19;12.40;99.90
22130;DHT22;11231;50.746;4.272;2023-10-31T06:24:44;12.50;99.90
22130;DHT22;11231;50.746;4.272;2023-10-31T06:27:10;12.40;99.90
22130;DHT22;11231;50.746;4.272;2023-10-31T06:29:36;12.40;99.90
22130;DHT22;11231;50.746;4.272;2023-10-31T06:32:02;12.50;99.90
22130;DHT22;11231;50.746;4.272;2023-10-31T06:34:27;12.40;99.90
22130;DHT22;11231;50.746;4.272;2023-10-31T06:36:53;12.40;99.90
22130;DHT22;11231;50.746;4.272;2023-10-31T06:39:19;12.40;99.90
22130;DHT22;11231;50.746;4.272;2023-10-31T06:41:45;12.40;99.90
22130;DHT22;11231;50.746;4.272;2023-10-31T06:44:11;12.40;99.90
22130;DHT22;11231;50.746;4.272;2023-10-31T06:46:36;12.30;99.90
22130;DHT22;11231;50.746;4.272;2023-10-31T06:49:02;12.40;99.90
22130;DHT22;11231;50.746;4.272;2023-10-31T06:51:28;12.30;99.90
22130;DHT22;11231;50.746;4.272;2023-10-31T06:53:54;12.30;99.90
22130;DHT22;11231;50.746;4.272;2023-10-31T06:56:20;12.30;99.90
22130;DHT22;11231;50.746;4.272;2023-10-31T06:58:45;12.30;99.90
22130;DHT22;11231;50.746;4.272;2023-10-31T07:01:11;12.30;99.90
22130;DHT22;11231;50.746;4.272;2023-10-31T07:03:37;12.30;99.90
22130;DHT22;11231;50.746;4.272;2023-10-31T07:06:03;12.40;99.90
22130;DHT22;11231;50.746;4.272;2023-10-31T07:08:29;12.40;99.90
22130;DHT22;11231;50.746;4.272;2023-10-31T07:10:55;12.30;99.90
22130;DHT22;11231;50.746;4.272;2023-10-31T07:13:21;12.30;99.90
22130;DHT22;11231;50.746;4.272;2023-10-31T07:15:47;12.30;99.90
22130;DHT22;11231;50.746;4.272;2023-10-31T07:18:13;12.40;99.90
22130;DHT22;11231;50.746;4.272;2023-10-31T07:20:38;12.40;99.90
22130;DHT22;11231;50.746;4.272;2023-10-31T07:23:04;12.50;99.90
22130;DHT22;11231;50.746;4.272;2023-10-31T07:25:30;12.50;99.90
22130;DHT22;11231;50.746;4.272;2023-10-31T07:27:56;12.70;99.90
22130;DHT22;11231;50.746;4.272;2023-10-31T07:30:21;12.70;99.90
22130;DHT22;11231;50.746;4.272;2023-10-31T07:32:47;12.90;99.90
22130;DHT22;11231;50.746;4.272;2023-10-31T07:35:13;13.00;99.90
22130;DHT22;11231;50.746;4.272;2023-10-31T07:37:39;13.00;99.90
22130;DHT22;11231;50.746;4.272;2023-10-31T07:40:05;13.10;99.90
22130;DHT22;11231;50.746;4.272;2023-10-31T07:42:31;13.20;99.90
22130;DHT22;11231;50.746;4.272;2023-10-31T07:44:57;13.10;99.90
22130;DHT22;11231;50.746;4.272;2023-10-31T07:47:22;13.10;99.90
22130;DHT22;11231;50.746;4.272;2023-10-31T07:49:48;13.20;99.90
22130;DHT22;11231;50.746;4.272;2023-10-31T07:52:14;13.20;99.90
22130;DHT22;11231;50.746;4.272;2023-10-31T07:54:40;13.20;99.90
22130;DHT22;11231;50.746;4.272;2023-10-31T07:57:07;13.30;99.90
22130;DHT22;11231;50.746;4.272;2023-10-31T07:59:35;13.40;99.90
22130;DHT22;11231;50.746;4.272;2023-10-31T08:02:01;13.40;99.90
22130;DHT22;11231;50.746;4.272;2023-10-31T08:04:28;13.20;99.90
22130;DHT22;11231;50.746;4.272;2023-10-31T08:06:55;13.20;99.90
22130;DHT22;11231;50.746;4.272;2023-10-31T08:09:21;13.20;99.90
22130;DHT22;11231;50.746;4.272;2023-10-31T08:11:47;13.10;99.90
22130;DHT22;11231;50.746;4.272;2023-10-31T08:14:13;13.10;99.90
22130;DHT22;11231;50.746;4.272;2023-10-31T08:16:41;13.10;99.90
22130;DHT22;11231;50.746;4.272;2023-10-31T08:19:10;13.10;99.90
22130;DHT22;11231;50.746;4.272;2023-10-31T08:21:36;13.10;99.90
22130;DHT22;11231;50.746;4.272;2023-10-31T08:24:04;13.20;99.90
22130;DHT22;11231;50.746;4.272;2023-10-31T08:26:34;13.20;99.90
22130;DHT22;11231;50.746;4.272;2023-10-31T08:29:00;13.30;99.90
22130;DHT22;11231;50.746;4.272;2023-10-31T08:31:28;13.40;99.90
22130;DHT22;11231;50.746;4.272;2023-10-31T08:33:54;13.40;99.90
22130;DHT22;11231;50.746;4.272;2023-10-31T08:36:20;13.50;99.90
22130;DHT22;11231;50.746;4.272;2023-10-31T08:38:46;13.60;99.90
22130;DHT22;11231;50.746;4.272;2023-10-31T08:41:11;13.60;99.90
22130;DHT22;11231;50.746;4.272;2023-10-31T08:43:37;13.80;99.90
22130;DHT22;11231;50.746;4.272;2023-10-31T08:46:03;14.00;99.90
22130;DHT22;11231;50.746;4.272;2023-10-31T08:48:29;14.00;99.90
22130;DHT22;11231;50.746;4.272;2023-10-31T08:50:55;14.10;99.90
22130;DHT22;11231;50.746;4.272;2023-10-31T08:53:20;14.40;99.90
22130;DHT22;11231;50.746;4.272;2023-10-31T08:55:46;14.40;99.90
22130;DHT22;11231;50.746;4.272;2023-10-31T08:58:13;14.60;99.90
22130;DHT22;11231;50.746;4.272;2023-10-31T09:00:39;14.70;99.90
22130;DHT22;11231;50.746;4.272;2023-10-31T09:03:06;14.80;99.90
22130;DHT22;11231;50.746;4.272;2023-10-31T09:05:33;15.00;99.90
22130;DHT22;11231;50.746;4.272;2023-10-31T09:07:59;14.90;99.90
22130;DHT22;11231;50.746;4.272;2023-10-31T09:10:25;14.90;99.90
22130;DHT22;11231;50.746;4.272;2023-10-31T09:12:50;14.90;99.90
22130;DHT22;11231;50.746;4.272;2023-10-31T09:15:16;14.90;99.90
22130;DHT22;11231;50.746;4.272;2023-10-31T09:17:42;15.00;99.90
22130;DHT22;11231;50.746;4.272;2023-10-31T09:20:08;14.80;99.90
22130;DHT22;11231;50.746;4.272;2023-10-31T09:22:34;14.80;99.90
22130;DHT22;11231;50.746;4.272;2023-10-31T09:25:00;14.80;99.90
22130;DHT22;11231;50.746;4.272;2023-10-31T09:27:28;14.60;99.90
22130;DHT22;11231;50.746;4.272;2023-10-31T09:29:54;14.50;99.90
22130;DHT22;11231;50.746;4.272;2023-10-31T09:32:19;14.50;99.90
22130;DHT22;11231;50.746;4.272;2023-10-31T09:34:45;14.60;99.90
22130;DHT22;11231;50.746;4.272;2023-10-31T09:37:12;14.80;99.90
22130;DHT22;11231;50.746;4.272;2023-10-31T09:39:40;14.80;99.90
22130;DHT22;11231;50.746;4.272;2023-10-31T09:42:07;14.80;99.90
22130;DHT22;11231;50.746;4.272;2023-10-31T09:44:33;14.80;99.90
22130;DHT22;11231;50.746;4.272;2023-10-31T09:47:00;14.70;99.90
22130;DHT22;11231;50.746;4.272;2023-10-31T09:49:29;14.60;99.90
22130;DHT22;11231;50.746;4.272;2023-10-31T09:51:55;14.40;99.90
22130;DHT22;11231;50.746;4.272;2023-10-31T09:54:22;14.40;99.90
22130;DHT22;11231;50.746;4.272;2023-10-31T09:56:49;14.30;99.90
22130;DHT22;11231;50.746;4.272;2023-10-31T09:59:15;14.30;99.90
22130;DHT22;11231;50.746;4.272;2023-10-31T10:01:41;14.40;99.90
22130;DHT22;11231;50.746;4.272;2023-10-31T10:04:07;14.40;99.90
22130;DHT22;11231;50.746;4.272;2023-10-31T10:06:33;14.20;99.90
22130;DHT22;11231;50.746;4.272;2023-10-31T10:08:59;14.30;99.90
22130;DHT22;11231;50.746;4.272;2023-10-31T10:11:25;14.30;99.90
22130;DHT22;11231;50.746;4.272;2023-10-31T10:13:54;14.30;99.90
22130;DHT22;11231;50.746;4.272;2023-10-31T10:16:40;14.30;99.90
22130;DHT22;11231;50.746;4.272;2023-10-31T10:19:16;14.20;99.90
22130;DHT22;11231;50.746;4.272;2023-10-31T10:21:58;14.00;99.90
22130;DHT22;11231;50.746;4.272;2023-10-31T10:24:25;14.10;99.90
22130;DHT22;11231;50.746;4.272;2023-10-31T10:26:51;14.10;99.90
22130;DHT22;11231;50.746;4.272;2023-10-31T10:29:17;14.10;99.90
22130;DHT22;11231;50.746;4.272;2023-10-31T10:31:43;14.10;99.90
22130;DHT22;11231;50.746;4.272;2023-10-31T10:34:14;13.90;99.90
22130;DHT22;11231;50.746;4.272;2023-10-31T10:36:40;14.00;99.90
22130;DHT22;11231;50.746;4.272;2023-10-31T10:39:32;14.00;99.90
22130;DHT22;11231;50.746;4.272;2023-10-31T10:42:01;14.00;99.90
22130;DHT22;11231;50.746;4.272;2023-10-31T10:44:34;13.90;99.90
22130;DHT22;11231;50.746;4.272;2023-10-31T10:47:05;13.80;99.90
22130;DHT22;11231;50.746;4.272;2023-10-31T10:49:34;13.80;99.90
22130;DHT22;11231;50.746;4.272;2023-10-31T10:54:44;13.70;99.90
22130;DHT22;11231;50.746;4.272;2023-10-31T10:57:37;13.50;99.90
22130;DHT22;11231;50.746;4.272;2023-10-31T11:00:05;13.60;99.90
22130;DHT22;11231;50.746;4.272;2023-10-31T11:02:36;13.70;99.90
22130;DHT22;11231;50.746;4.272;2023-10-31T11:05:09;13.80;99.90
22130;DHT22;11231;50.746;4.272;2023-10-31T11:07:46;13.80;99.90
22130;DHT22;11231;50.746;4.272;2023-10-31T11:10:13;13.90;99.90
22130;DHT22;11231;50.746;4.272;2023-10-31T11:12:40;14.00;99.90
22130;DHT22;11231;50.746;4.272;2023-10-31T11:15:08;13.90;99.90
22130;DHT22;11231;50.746;4.272;2023-10-31T11:17:37;13.80;99.90
22130;DHT22;11231;50.746;4.272;2023-10-31T11:20:04;13.80;99.90
22130;DHT22;11231;50.746;4.272;2023-10-31T11:22:41;13.80;99.90
22130;DHT22;11231;50.746;4.272;2023-10-31T11:25:08;13.90;99.90
22130;DHT22;11231;50.746;4.272;2023-10-31T11:27:35;14.00;99.90
22130;DHT22;11231;50.746;4.272;2023-10-31T11:30:26;13.80;99.90
22130;DHT22;11231;50.746;4.272;2023-10-31T11:32:53;13.60;99.90
22130;DHT22;11231;50.746;4.272;2023-10-31T11:35:19;13.50;99.90
22130;DHT22;11231;50.746;4.272;2023-10-31T11:38:00;13.50;99.90
22130;DHT22;11231;50.746;4.272;2023-10-31T11:40:26;13.30;99.90
22130;DHT22;11231;50.746;4.272;2023-10-31T11:42:53;13.40;99.90
22130;DHT22;11231;50.746;4.272;2023-10-31T11:48:03;13.50;99.90
22130;DHT22;11231;50.746;4.272;2023-10-31T11:50:33;13.60;99.90
22130;DHT22;11231;50.746;4.272;2023-10-31T11:53:04;13.60;99.90
22130;DHT22;11231;50.746;4.272;2023-10-31T11:55:32;13.50;99.90
22130;DHT22;11231;50.746;4.272;2023-10-31T11:58:32;13.50;99.90
22130;DHT22;11231;50.746;4.272;2023-10-31T12:01:04;13.40;99.90
22130;DHT22;11231;50.746;4.272;2023-10-31T12:03:43;13.30;99.90
22130;DHT22;11231;50.746;4.272;2023-10-31T12:06:14;13.40;99.90
22130;DHT22;11231;50.746;4.272;2023-10-31T12:08:41;13.30;99.90
22130;DHT22;11231;50.746;4.272;2023-10-31T12:11:14;13.50;99.90
22130;DHT22;11231;50.746;4.272;2023-10-31T12:16:29;13.50;99.90
22130;DHT22;11231;50.746;4.272;2023-10-31T12:21:46;13.40;99.90
22130;DHT22;11231;50.746;4.272;2023-10-31T12:24:15;13.40;99.90
22130;DHT22;11231;50.746;4.272;2023-10-31T12:26:41;13.60;99.90
22130;DHT22;11231;50.746;4.272;2023-10-31T12:29:15;13.60;99.90
22130;DHT22;11231;50.746;4.272;2023-10-31T12:31:52;13.60;99.90
22130;DHT22;11231;50.746;4.272;2023-10-31T12:34:20;13.50;99.90
22130;DHT22;11231;50.746;4.272;2023-10-31T12:36:48;13.40;99.90
22130;DHT22;11231;50.746;4.272;2023-10-31T12:39:15;13.40;99.90
22130;DHT22;11231;50.746;4.272;2023-10-31T12:41:42;13.40;99.90
22130;DHT22;11231;50.746;4.272;2023-10-31T12:44:09;13.50;99.90
22130;DHT22;11231;50.746;4.272;2023-10-31T12:46:41;13.80;99.90
22130;DHT22;11231;50.746;4.272;2023-10-31T12:49:17;13.80;99.90
22130;DHT22;11231;50.746;4.272;2023-10-31T12:57:01;14.00;99.90
22130;DHT22;11231;50.746;4.272;2023-10-31T12:59:28;14.00;99.90
22130;DHT22;11231;50.746;4.272;2023-10-31T13:01:54;14.10;99.90
22130;DHT22;11231;50.746;4.272;2023-10-31T13:04:46;14.00;99.90
22130;DHT22;11231;50.746;4.272;2023-10-31T13:07:12;13.70;99.90
22130;DHT22;11231;50.746;4.272;2023-10-31T13:09:38;13.70;99.90
22130;DHT22;11231;50.746;4.272;2023-10-31T13:12:06;13.80;99.90
22130;DHT22;11231;50.746;4.272;2023-10-31T13:14:32;13.70;99.90
22130;DHT22;11231;50.746;4.272;2023-10-31T13:16:59;13.70;99.90
22130;DHT22;11231;50.746;4.272;2023-10-31T13:19:25;13.80;99.90
22130;DHT22;11231;50.746;4.272;2023-10-31T13:21:50;13.80;99.90
22130;DHT22;11231;50.746;4.272;2023-10-31T13:24:16;13.90;99.90
22130;DHT22;11231;50.746;4.272;2023-10-31T13:26:42;13.90;99.90
22130;DHT22;11231;50.746;4.272;2023-10-31T13:29:10;13.90;99.90
22130;DHT22;11231;50.746;4.272;2023-10-31T13:31:37;13.90;99.90
22130;DHT22;11231;50.746;4.272;2023-10-31T13:34:03;14.00;99.90
22130;DHT22;11231;50.746;4.272;2023-10-31T13:36:29;14.00;99.90
22130;DHT22;11231;50.746;4.272;2023-10-31T13:38:54;14.20;99.90
22130;DHT22;11231;50.746;4.272;2023-10-31T13:41:20;14.30;99.90
22130;DHT22;11231;50.746;4.272;2023-10-31T13:43:47;14.30;99.90
22130;DHT22;11231;50.746;4.272;2023-10-31T13:46:14;14.50;99.90
22130;DHT22;11231;50.746;4.272;2023-10-31T13:48:39;14.40;99.90
22130;DHT22;11231;50.746;4.272;2023-10-31T13:51:05;14.50;99.90
22130;DHT22;11231;50.746;4.272;2023-10-31T13:53:31;14.60;99.90
22130;DHT22;11231;50.746;4.272;2023-10-31T13:55:56;14.70;99.90
22130;DHT22;11231;50.746;4.272;2023-10-31T13:58:22;14.80;99.90
22130;DHT22;11231;50.746;4.272;2023-10-31T14:00:48;15.10;99.90
22130;DHT22;11231;50.746;4.272;2023-10-31T14:03:13;15.10;99.90
22130;DHT22;11231;50.746;4.272;2023-10-31T14:05:40;15.00;99.90
22130;DHT22;11231;50.746;4.272;2023-10-31T14:08:07;15.00;99.90
22130;DHT22;11231;50.746;4.272;2023-10-31T14:10:33;15.00;99.90
22130;DHT22;11231;50.746;4.272;2023-10-31T14:12:59;15.00;99.90
22130;DHT22;11231;50.746;4.272;2023-10-31T14:15:25;15.00;99.90
22130;DHT22;11231;50.746;4.272;2023-10-31T14:17:51;15.00;99.90
22130;DHT22;11231;50.746;4.272;2023-10-31T14:20:17;15.00;99.90
22130;DHT22;11231;50.746;4.272;2023-10-31T14:22:49;15.10;99.90
22130;DHT22;11231;50.746;4.272;2023-10-31T14:25:15;15.00;99.90
22130;DHT22;11231;50.746;4.272;2023-10-31T14:27:41;15.00;99.90
22130;DHT22;11231;50.746;4.272;2023-10-31T14:30:09;14.90;99.90
22130;DHT22;11231;50.746;4.272;2023-10-31T14:32:34;14.80;99.90
22130;DHT22;11231;50.746;4.272;2023-10-31T14:35:00;14.70;99.90
22130;DHT22;11231;50.746;4.272;2023-10-31T14:37:27;14.70;99.90
22130;DHT22;11231;50.746;4.272;2023-10-31T14:39:53;14.60;99.90
22130;DHT22;11231;50.746;4.272;2023-10-31T14:42:19;14.70;99.90
22130;DHT22;11231;50.746;4.272;2023-10-31T14:44:46;14.70;99.90
22130;DHT22;11231;50.746;4.272;2023-10-31T14:47:12;14.60;99.90
22130;DHT22;11231;50.746;4.272;2023-10-31T14:49:37;14.50;99.90
22130;DHT22;11231;50.746;4.272;2023-10-31T14:52:03;14.40;99.90
22130;DHT22;11231;50.746;4.272;2023-10-31T14:54:30;14.50;99.90
22130;DHT22;11231;50.746;4.272;2023-10-31T14:56:57;14.50;99.90
22130;DHT22;11231;50.746;4.272;2023-10-31T14:59:22;14.50;99.90
22130;DHT22;11231;50.746;4.272;2023-10-31T15:01:48;14.60;99.90
22130;DHT22;11231;50.746;4.272;2023-10-31T15:04:14;14.60;99.90
22130;DHT22;11231;50.746;4.272;2023-10-31T15:06:42;14.60;99.90
22130;DHT22;11231;50.746;4.272;2023-10-31T15:09:09;14.70;99.90
22130;DHT22;11231;50.746;4.272;2023-10-31T15:11:35;14.60;99.90
22130;DHT22;11231;50.746;4.272;2023-10-31T15:14:01;14.60;99.90
22130;DHT22;11231;50.746;4.272;2023-10-31T15:16:28;14.30;99.90
22130;DHT22;11231;50.746;4.272;2023-10-31T15:18:54;14.30;99.90
22130;DHT22;11231;50.746;4.272;2023-10-31T15:21:20;14.20;99.90
22130;DHT22;11231;50.746;4.272;2023-10-31T15:23:46;14.10;99.90
22130;DHT22;11231;50.746;4.272;2023-10-31T15:26:12;14.00;99.90
22130;DHT22;11231;50.746;4.272;2023-10-31T15:28:42;14.00;99.90
22130;DHT22;11231;50.746;4.272;2023-10-31T15:31:08;13.90;99.90
22130;DHT22;11231;50.746;4.272;2023-10-31T15:33:34;13.80;99.90
22130;DHT22;11231;50.746;4.272;2023-10-31T15:36:00;13.90;99.90
22130;DHT22;11231;50.746;4.272;2023-10-31T15:38:26;14.00;99.90
22130;DHT22;11231;50.746;4.272;2023-10-31T15:40:54;14.10;99.90
22130;DHT22;11231;50.746;4.272;2023-10-31T15:43:20;14.10;99.90
22130;DHT22;11231;50.746;4.272;2023-10-31T15:45:46;14.10;99.90